Terminal Aerodrome Forecast
Issued by NWS

Home | Current Version | Previous Version | Text Only | Print | Product List | Glossary On
Versions: 1 2 3 4 5 6 7 8 9 10 11 12 13 14 15 16 17 18 19 20 21 22 23 24 25 26 27 28 29 30
966
FTUS42 KMHX 191404 AAA
TAFOAJ
TAF AMD
KOAJ 191404Z 1914/2012 16015G30KT P6SM VCSH OVC025
     FM192100 17018G31KT 6SM -SHRA OVC030
     FM200000 17018G29KT 3SM +SHRA VCTS OVC030CB
     FM200300 18017G26KT 2SM +SHRA VCTS OVC015CB
     FM200900 22010G17KT P6SM SCT100
      AMD LTD TO CLD VIS AND WIND=

USA.gov is the U.S. government's official web portal to all federal, state and local government web resources and services.